createdAt,value
2023-01-28T00:10:20.406Z,100207.69
2023-01-28T00:12:51.001Z,100209.45
2023-01-28T00:15:19.250Z,100209.29
2023-01-28T00:17:49.357Z,100211.83
2023-01-28T00:20:17.427Z,100211.52
2023-01-28T00:22:51.728Z,100211.34
2023-01-28T00:25:20.067Z,100215.83
2023-01-28T00:27:49.912Z,100216.08
2023-01-28T00:30:18.926Z,100210.51
2023-01-28T00:32:48.024Z,100211.27
2023-01-28T00:35:16.379Z,100210.37
2023-01-28T00:37:46.633Z,100214.05
2023-01-28T00:40:14.797Z,100206.34
2023-01-28T00:42:42.880Z,100207.64
2023-01-28T00:45:11.015Z,100200.44
2023-01-28T00:47:39.524Z,100199.38
2023-01-28T00:50:07.752Z,100201.91
2023-01-28T00:52:35.872Z,100200.36
2023-01-28T00:55:04.771Z,100204.86
2023-01-28T00:57:33.340Z,100208.39
2023-01-28T01:00:02.053Z,100208.98
2023-01-28T01:02:30.442Z,100212.67
2023-01-28T01:04:58.495Z,100210.09
2023-01-28T01:07:41.627Z,100207.98
2023-01-28T01:10:15.049Z,100207.54
2023-01-28T01:12:43.076Z,100204.27
2023-01-28T01:15:11.405Z,100199.98
2023-01-28T01:17:45.035Z,100195.54
2023-01-28T01:20:15.279Z,100188.13
2023-01-28T01:22:43.394Z,100188.06
2023-01-28T01:25:12.953Z,100189.15
2023-01-28T01:27:43.777Z,100187.23
2023-01-28T01:30:12.704Z,100184.23
2023-01-28T01:32:41.335Z,100187.55
2023-01-28T01:35:10.064Z,100187.01
2023-01-28T01:37:39.795Z,100197.88
2023-01-28T01:40:09.476Z,100194.13
2023-01-28T01:42:38.005Z,100194.77
2023-01-28T01:45:08.054Z,100193.86
2023-01-28T01:47:44.747Z,100194.71
2023-01-28T01:50:15.577Z,100191.38
2023-01-28T01:52:43.752Z,100183.56
2023-01-28T01:55:14.202Z,100182.08
2023-01-28T01:57:42.353Z,100176.73
2023-01-28T02:00:10.984Z,100179.59
2023-01-28T02:02:46.248Z,100175.18
2023-01-28T05:58:05.578Z,100218.60
2023-01-28T06:00:34.256Z,100214.11
2023-01-28T06:03:02.863Z,100220.00
2023-01-28T06:05:31.663Z,100216.75
2023-01-28T06:08:00.449Z,100215.09
2023-01-28T06:10:28.592Z,100211.98
2023-01-28T06:12:57.267Z,100216.20
2023-01-28T06:15:31.476Z,100216.79
2023-01-28T06:18:15.464Z,100212.85
2023-01-28T06:20:43.818Z,100212.27
2023-01-28T06:23:12.368Z,100205.58
2023-01-28T06:25:40.416Z,100208.44
2023-01-28T06:28:13.180Z,100215.27
2023-01-28T06:30:41.742Z,100218.66
2023-01-28T06:33:09.754Z,100218.59
2023-01-28T06:35:40.296Z,100219.13
2023-01-28T06:38:08.597Z,100217.65
2023-01-28T06:40:37.207Z,100217.11
2023-01-28T06:43:05.658Z,100221.66
2023-01-28T06:45:35.613Z,100228.29
2023-01-28T06:48:05.664Z,100232.28
2023-01-28T06:50:36.640Z,100231.92
2023-01-28T06:53:05.539Z,100231.38
2023-01-28T06:55:33.546Z,100231.22
2023-01-28T06:58:02.231Z,100222.51
2023-01-28T07:00:31.482Z,100222.96
2023-01-28T07:02:59.580Z,100222.72
2023-01-28T07:05:27.960Z,100224.28
2023-01-28T07:07:56.942Z,100220.39
2023-01-28T07:10:24.916Z,100220.15
2023-01-28T07:12:53.957Z,100225.55
2023-01-28T07:15:22.152Z,100233.16
2023-01-28T07:17:50.198Z,100234.81
2023-01-28T07:20:18.688Z,100231.20
2023-01-28T07:22:47.095Z,100233.10
2023-01-28T07:25:15.254Z,100233.52
2023-01-28T07:27:50.862Z,100232.80
2023-01-28T07:30:24.407Z,100230.25
2023-01-28T07:32:54.984Z,100229.02
2023-01-28T07:35:23.427Z,100223.45
2023-01-28T07:37:55.669Z,100219.65
2023-01-28T07:40:24.421Z,100212.02
2023-01-28T07:42:53.391Z,100208.86
2023-01-28T07:45:24.384Z,100205.17
2023-01-28T07:48:01.992Z,100209.66
2023-01-28T07:50:30.992Z,100212.38
2023-01-28T07:52:59.174Z,100216.79
2023-01-28T07:55:30.233Z,100217.79
2023-01-28T07:58:00.323Z,100226.06
2023-01-28T08:00:29.700Z,100230.33
2023-01-28T08:02:59.273Z,100236.94
2023-01-28T08:05:32.433Z,100244.61
2023-01-28T08:08:01.115Z,100242.63
2023-01-28T08:10:30.458Z,100246.66
2023-01-28T08:12:59.732Z,100242.23
2023-01-28T08:15:28.812Z,100240.63
2023-01-28T08:17:58.958Z,100238.58
2023-01-28T08:20:28.064Z,100235.77
2023-01-28T08:23:13.063Z,100235.95
2023-01-28T08:25:41.095Z,100231.71
2023-01-28T08:28:10.599Z,100236.46
2023-01-28T08:30:39.109Z,100238.09
2023-01-28T08:33:09.053Z,100236.71
2023-01-28T08:35:37.639Z,100233.04
2023-01-28T08:38:06.379Z,100233.45
2023-01-28T08:40:34.904Z,100237.47
2023-01-28T08:43:03.541Z,100231.97
2023-01-28T08:45:32.574Z,100226.41
2023-01-28T08:48:02.073Z,100223.08
2023-01-28T08:50:33.047Z,100222.83
2023-01-28T08:53:12.762Z,100218.73
2023-01-28T08:55:40.821Z,100214.33
2023-01-28T08:58:13.700Z,100214.73
2023-01-28T09:00:42.132Z,100209.66
2023-01-28T09:03:10.304Z,100202.48
2023-01-28T09:05:38.933Z,100199.48
2023-01-28T09:08:10.020Z,100189.27
2023-01-28T09:10:38.733Z,100187.46
2023-01-28T09:13:07.953Z,100185.92
2023-01-28T09:15:36.072Z,100184.31
2023-01-28T09:18:05.373Z,100183.44
2023-01-28T09:20:33.770Z,100180.25
2023-01-28T09:23:01.905Z,100181.14
2023-01-28T09:25:30.499Z,100177.79
2023-01-28T09:27:58.670Z,100175.34
2023-01-28T09:30:26.829Z,100169.45
2023-01-28T09:32:55.252Z,100168.08
2023-01-28T09:35:23.410Z,100163.24
2023-01-28T09:37:52.141Z,100161.48
2023-01-28T09:40:40.665Z,100160.42
2023-01-28T09:43:33.806Z,100162.05
2023-01-28T09:46:05.905Z,100159.63
2023-01-28T09:48:45.414Z,100156.23
2023-01-28T09:51:33.164Z,100159.02
2023-01-28T13:57:25.147Z,100010.66
2023-01-28T14:00:26.111Z,100013.63
2023-01-28T14:03:14.197Z,100017.91
2023-01-28T14:06:18.717Z,100017.80
2023-01-28T14:09:14.766Z,100016.73
2023-01-28T14:11:58.068Z,100020.91
2023-01-28T14:14:26.083Z,100017.49
2023-01-28T14:17:04.067Z,100016.60
2023-01-28T14:19:34.192Z,100012.39
2023-01-28T14:22:09.371Z,100013.37
2023-01-28T14:24:38.539Z,100010.80
2023-01-28T14:27:37.641Z,100014.76
2023-01-28T14:30:16.537Z,100014.20
2023-01-28T14:32:49.240Z,100014.56
2023-01-28T14:35:33.965Z,100015.23
2023-01-28T14:38:08.016Z,100017.30
2023-01-28T14:40:38.085Z,100017.12
2023-01-28T14:43:08.703Z,100018.10
2023-01-28T14:46:36.088Z,100016.98
2023-01-28T14:49:19.280Z,100015.80
2023-01-28T14:52:13.023Z,100022.92
2023-01-28T14:54:54.414Z,100020.13
2023-01-28T14:58:02.583Z,100025.70
2023-01-28T15:00:34.453Z,100028.08
2023-01-28T15:03:27.154Z,100028.09
2023-01-28T15:06:12.201Z,100033.23
2023-01-28T15:08:43.241Z,100036.11
2023-01-28T15:11:13.790Z,100037.55
2023-01-28T15:13:50.664Z,100037.64
2023-01-28T15:16:24.499Z,100037.67
2023-01-28T15:18:56.591Z,100038.01
2023-01-28T15:21:30.447Z,100040.27
2023-01-28T15:24:00.446Z,100038.24
2023-01-28T15:26:33.256Z,100037.61
2023-01-28T15:29:01.632Z,100038.96
2023-01-28T15:31:34.998Z,100040.90
2023-01-28T15:34:04.375Z,100040.60
2023-01-28T15:36:33.018Z,100039.89
2023-01-28T15:39:01.575Z,100038.39
2023-01-28T15:41:39.521Z,100048.18
2023-01-28T15:44:39.251Z,100047.57
2023-01-28T15:47:32.567Z,100049.87
2023-01-28T15:50:04.851Z,100051.27
2023-01-28T15:52:38.387Z,100047.53
2023-01-28T15:55:07.736Z,100050.77
2023-01-28T15:57:35.799Z,100048.81
2023-01-28T16:00:14.236Z,100051.23
2023-01-28T16:02:52.406Z,100052.61
2023-01-28T16:05:32.002Z,100052.81
2023-01-28T16:08:02.446Z,100057.25
2023-01-28T16:10:31.551Z,100059.52
2023-01-28T16:13:26.568Z,100061.83
2023-01-28T16:15:56.802Z,100060.14
2023-01-28T16:18:41.613Z,100063.08
2023-01-28T16:21:12.844Z,100057.71
2023-01-28T16:23:40.963Z,100057.21
2023-01-28T16:26:26.115Z,100054.65
2023-01-28T16:29:20.853Z,100053.27
2023-01-28T16:31:48.967Z,100053.08
2023-01-28T16:34:17.228Z,100054.16
2023-01-28T16:36:45.475Z,100058.80
2023-01-28T16:39:14.203Z,100060.67
2023-01-28T16:41:44.084Z,100059.21
2023-01-28T16:44:13.929Z,100059.42
2023-01-28T16:46:42.634Z,100056.29
2023-01-28T16:49:15.326Z,100055.42
2023-01-28T16:51:44.168Z,100059.35
2023-01-28T16:54:13.844Z,100057.16
2023-01-28T16:56:46.444Z,100056.02
2023-01-28T16:59:16.160Z,100056.71
2023-01-28T17:01:45.843Z,100052.95
2023-01-28T17:04:13.989Z,100059.95
2023-01-28T17:06:43.287Z,100061.06
2023-01-28T17:09:12.883Z,100065.45
2023-01-28T17:11:41.839Z,100058.18
2023-01-28T17:14:11.239Z,100060.65
2023-01-28T17:16:40.144Z,100063.42
2023-01-28T17:19:08.276Z,100068.02
2023-01-28T17:21:37.815Z,100065.72
2023-01-28T17:24:06.545Z,100062.77
2023-01-28T17:26:36.547Z,100062.54
2023-01-28T17:29:05.646Z,100062.95
2023-01-28T17:31:36.432Z,100060.77
2023-01-28T17:34:08.187Z,100057.20
2023-01-28T17:36:36.452Z,100055.66
2023-01-28T17:39:06.894Z,100054.83
2023-01-28T17:41:36.372Z,100053.59
2023-01-28T17:44:04.663Z,100056.54
2023-01-28T17:46:32.932Z,100055.16
2023-01-28T17:49:02.048Z,100058.98
2023-01-28T17:51:31.075Z,100061.09
2023-01-28T17:53:59.211Z,100062.39
2023-01-28T17:56:29.912Z,100066.02
2023-01-28T21:59:39.827Z,100098.63
2023-01-28T22:02:32.077Z,100098.27
2023-01-28T22:05:07.196Z,100100.08
2023-01-28T22:07:40.766Z,100095.90
2023-01-28T22:10:10.755Z,100094.44
2023-01-28T22:12:41.003Z,100100.52
2023-01-28T22:15:10.112Z,100097.23
2023-01-28T22:17:38.427Z,100097.86
2023-01-28T22:20:07.455Z,100100.34
2023-01-28T22:22:36.541Z,100097.67
2023-01-28T22:25:08.186Z,100092.15
2023-01-28T22:27:36.371Z,100091.21
2023-01-28T22:30:06.262Z,100085.56
2023-01-28T22:32:34.860Z,100085.21
2023-01-28T22:35:04.810Z,100087.82
2023-01-28T22:37:35.052Z,100086.33
2023-01-28T22:40:03.203Z,100083.77
2023-01-28T22:42:34.787Z,100079.11
2023-01-28T22:45:03.863Z,100078.60
2023-01-28T22:47:32.055Z,100078.12
2023-01-28T22:50:00.703Z,100076.20
2023-01-28T22:52:28.984Z,100073.52
2023-01-28T22:54:57.152Z,100076.17
2023-01-28T22:57:25.152Z,100073.13
2023-01-28T23:00:00.029Z,100074.01
2023-01-28T23:02:29.114Z,100071.48
2023-01-28T23:04:57.252Z,100074.95
2023-01-28T23:07:25.905Z,100070.23
2023-01-28T23:09:53.966Z,100068.92
2023-01-28T23:12:23.115Z,100070.48
2023-01-28T23:15:10.208Z,100070.13
2023-01-28T23:17:57.194Z,100065.07
2023-01-28T23:20:44.536Z,100057.15
2023-01-28T23:23:35.403Z,100059.48
2023-01-28T23:26:04.653Z,100054.23
2023-01-28T23:28:34.049Z,100055.91
2023-01-28T23:31:02.063Z,100054.27
2023-01-28T23:33:31.753Z,100056.66
2023-01-28T23:36:00.178Z,100055.16
2023-01-28T23:38:28.778Z,100052.46
2023-01-28T23:40:57.042Z,100054.01
2023-01-28T23:43:24.967Z,100048.89
2023-01-28T23:45:53.092Z,100043.61
2023-01-28T23:48:21.186Z,100045.09
2023-01-28T23:50:54.577Z,100046.39
2023-01-28T23:53:23.576Z,100044.85
2023-01-28T23:55:51.558Z,100043.61
2023-01-28T23:58:33.537Z,100040.03
